createdAt,value
2017-06-25T00:01:29.717Z,82.90
2017-06-25T00:03:57.007Z,82.30
2017-06-25T00:06:24.690Z,82.10
2017-06-25T00:08:51.974Z,82.10
2017-06-25T00:11:19.266Z,82.50
2017-06-25T00:13:46.546Z,82.20
2017-06-25T00:16:13.819Z,82.20
2017-06-25T00:18:41.107Z,82.10
2017-06-25T00:21:08.377Z,81.90
2017-06-25T00:26:14.680Z,82.40
2017-06-25T00:28:41.974Z,82.20
2017-06-25T00:31:09.238Z,82.30
2017-06-25T00:33:36.565Z,82.00
2017-06-25T00:36:03.838Z,81.90
2017-06-25T00:38:31.133Z,82.10
2017-06-25T00:40:58.805Z,82.10
2017-06-25T00:43:26.085Z,82.00
2017-06-25T00:45:53.367Z,82.00
2017-06-25T00:48:20.644Z,81.80
2017-06-25T00:50:47.928Z,81.70
2017-06-25T00:53:20.644Z,81.60
2017-06-25T00:55:47.936Z,81.60
2017-06-25T00:58:15.222Z,81.40
2017-06-25T01:00:42.515Z,81.30
2017-06-25T01:03:09.803Z,81.60
2017-06-25T01:05:37.075Z,81.50
2017-06-25T01:08:04.370Z,81.80
2017-06-25T01:10:31.640Z,81.90
2017-06-25T01:13:01.209Z,81.70
2017-06-25T01:15:29.009Z,81.80
2017-06-25T01:17:56.263Z,81.90
2017-06-25T01:20:23.751Z,81.80
2017-06-25T01:22:51.417Z,81.70
2017-06-25T01:25:18.676Z,81.70
2017-06-25T01:27:46.369Z,82.20
2017-06-25T01:30:13.655Z,82.30
2017-06-25T01:32:40.939Z,82.10
2017-06-25T01:35:09.616Z,82.10
2017-06-25T01:37:37.402Z,82.60
2017-06-25T01:40:04.688Z,82.60
2017-06-25T01:42:31.961Z,82.60
2017-06-25T01:44:59.223Z,82.80
2017-06-25T01:47:26.515Z,82.90
2017-06-25T01:49:53.783Z,83.10
2017-06-25T01:52:21.056Z,83.40
2017-06-25T01:54:48.323Z,83.20
2017-06-25T01:57:15.909Z,83.20
2017-06-25T01:59:43.195Z,83.30
2017-06-25T02:02:10.478Z,83.40
2017-06-25T02:04:37.748Z,83.20
2017-06-25T02:07:05.959Z,83.50
2017-06-25T02:09:33.282Z,83.50
2017-06-25T02:12:00.551Z,83.30
2017-06-25T02:14:28.966Z,83.70
2017-06-25T02:16:56.499Z,83.30
2017-06-25T02:19:24.759Z,83.60
2017-06-25T02:21:52.060Z,83.60
2017-06-25T02:24:19.324Z,83.70
2017-06-25T02:26:47.166Z,83.70
2017-06-25T02:29:14.738Z,83.80
2017-06-25T02:31:42.046Z,83.80
2017-06-25T02:34:09.688Z,83.70
2017-06-25T02:36:37.351Z,83.90
2017-06-25T02:39:04.635Z,84.00
2017-06-25T02:41:31.918Z,84.00
2017-06-25T02:43:59.206Z,84.30
2017-06-25T02:46:26.471Z,84.60
2017-06-25T02:48:53.756Z,84.50
2017-06-25T02:51:21.423Z,84.30
2017-06-25T02:53:48.731Z,84.30
2017-06-25T02:56:16.019Z,84.30
2017-06-25T02:58:43.571Z,83.90
2017-06-25T03:01:11.258Z,83.90
2017-06-25T03:03:38.524Z,83.90
2017-06-25T03:06:05.802Z,83.90
2017-06-25T03:08:33.090Z,84.00
2017-06-25T03:11:00.376Z,84.30
2017-06-25T03:13:27.664Z,84.40
2017-06-25T03:15:54.946Z,84.30
2017-06-25T03:18:22.218Z,84.50
2017-06-25T03:20:49.503Z,84.00
2017-06-25T03:23:16.768Z,83.90
2017-06-25T03:25:44.049Z,84.10
2017-06-25T03:28:11.316Z,84.00
2017-06-25T03:30:38.584Z,84.20
2017-06-25T03:33:05.868Z,84.00
2017-06-25T03:35:33.158Z,83.90
2017-06-25T03:38:00.435Z,84.00
2017-06-25T03:40:28.093Z,84.20
2017-06-25T03:42:55.359Z,84.20
2017-06-25T03:45:23.048Z,84.10
2017-06-25T03:47:50.316Z,84.10
2017-06-25T03:50:17.594Z,84.00
2017-06-25T03:52:44.857Z,83.70
2017-06-25T03:55:12.137Z,83.70
2017-06-25T03:57:39.422Z,84.20
2017-06-25T04:00:06.680Z,84.20
2017-06-25T04:02:33.954Z,84.00
2017-06-25T04:05:01.221Z,84.00
2017-06-25T04:07:28.488Z,84.20
2017-06-25T04:09:55.752Z,84.20
2017-06-25T04:12:23.038Z,84.00
2017-06-25T04:14:50.304Z,83.80
2017-06-25T04:17:17.577Z,84.00
2017-06-25T04:19:44.854Z,84.20
2017-06-25T04:22:12.140Z,84.30
2017-06-25T04:24:39.418Z,83.90
2017-06-25T04:27:06.827Z,83.80
2017-06-25T04:29:34.117Z,83.70
2017-06-25T04:32:01.385Z,83.80
2017-06-25T04:34:28.675Z,83.90
2017-06-25T04:36:55.952Z,84.10
2017-06-25T04:39:23.216Z,84.10
2017-06-25T04:41:50.503Z,84.10
2017-06-25T04:44:17.776Z,84.10
2017-06-25T04:46:45.056Z,84.00
2017-06-25T04:49:12.324Z,84.00
2017-06-25T04:51:39.606Z,83.90
2017-06-25T04:54:06.892Z,83.70
2017-06-25T04:56:34.174Z,83.80
2017-06-25T04:59:01.455Z,83.50
2017-06-25T05:01:28.719Z,83.70
2017-06-25T05:03:56.016Z,83.50
2017-06-25T05:06:23.289Z,83.50
2017-06-25T05:08:50.572Z,83.50
2017-06-25T05:11:17.854Z,83.60
2017-06-25T05:13:45.143Z,83.50
2017-06-25T05:21:30.924Z,83.70
2017-06-25T05:23:58.196Z,83.70
2017-06-25T05:26:25.487Z,83.50
2017-06-25T05:28:52.753Z,83.50
2017-06-25T05:31:20.047Z,83.60
2017-06-25T05:33:47.304Z,83.60
2017-06-25T05:36:14.582Z,83.60
2017-06-25T05:38:42.249Z,83.40
2017-06-25T05:41:09.528Z,83.40
2017-06-25T05:43:36.809Z,83.50
2017-06-25T05:46:04.084Z,83.40
2017-06-25T05:48:31.371Z,83.60
2017-06-25T05:50:58.659Z,83.40
2017-06-25T05:53:25.921Z,83.50
2017-06-25T05:55:53.197Z,83.50
2017-06-25T05:58:20.500Z,83.50
2017-06-25T06:00:47.775Z,83.30
2017-06-25T06:03:15.063Z,83.30
2017-06-25T06:05:42.661Z,83.40
2017-06-25T06:08:09.954Z,83.30
2017-06-25T06:10:37.246Z,83.40
2017-06-25T06:13:04.509Z,83.30
2017-06-25T06:15:31.791Z,83.40
2017-06-25T06:17:59.079Z,83.30
2017-06-25T06:20:26.366Z,83.40
2017-06-25T06:22:54.039Z,83.20
2017-06-25T06:25:21.317Z,83.20
2017-06-25T06:27:48.606Z,83.30
2017-06-25T06:30:16.135Z,83.20
2017-06-25T06:32:43.400Z,83.20
2017-06-25T06:35:10.689Z,83.00
2017-06-25T06:37:37.974Z,83.00
2017-06-25T06:40:05.245Z,83.20
2017-06-25T06:42:32.505Z,83.10
2017-06-25T06:44:59.776Z,83.10
2017-06-25T06:47:27.066Z,83.30
2017-06-25T06:49:54.349Z,83.20
2017-06-25T06:52:21.647Z,83.10
2017-06-25T06:54:48.913Z,83.00
2017-06-25T06:57:16.577Z,83.10
2017-06-25T06:59:43.853Z,83.00
2017-06-25T07:02:11.121Z,83.10
2017-06-25T07:04:38.394Z,83.00
2017-06-25T07:07:05.665Z,82.90
2017-06-25T07:09:32.951Z,83.10
2017-06-25T07:12:00.240Z,82.90
2017-06-25T07:14:27.539Z,82.70
2017-06-25T07:16:54.839Z,82.70
2017-06-25T07:19:22.131Z,82.60
2017-06-25T07:21:49.401Z,82.50
2017-06-25T07:24:16.676Z,82.40
2017-06-25T07:26:43.962Z,82.20
2017-06-25T07:29:11.252Z,82.10
2017-06-25T07:31:38.544Z,82.00
2017-06-25T07:34:05.817Z,82.10
2017-06-25T07:36:33.094Z,81.90
2017-06-25T07:39:00.360Z,82.10
2017-06-25T07:41:27.637Z,81.90
2017-06-25T07:43:54.917Z,81.90
2017-06-25T07:46:22.210Z,82.00
2017-06-25T07:48:49.468Z,81.90
2017-06-25T07:51:16.736Z,81.80
2017-06-25T07:53:44.421Z,82.00
2017-06-25T07:56:11.703Z,82.00
2017-06-25T07:58:39.150Z,82.00
2017-06-25T08:01:06.448Z,81.80
2017-06-25T08:03:33.708Z,82.00
2017-06-25T08:06:00.995Z,81.80
2017-06-25T08:08:28.282Z,81.90
2017-06-25T08:10:55.566Z,81.80
2017-06-25T08:13:22.841Z,81.70
2017-06-25T08:15:50.130Z,81.80
2017-06-25T08:18:17.414Z,81.70
2017-06-25T08:20:44.684Z,81.70
2017-06-25T08:23:11.948Z,81.80
2017-06-25T08:25:39.213Z,81.70
2017-06-25T08:28:06.485Z,81.80
2017-06-25T08:30:33.779Z,81.70
2017-06-25T08:33:01.063Z,81.70
2017-06-25T08:35:28.351Z,81.80
2017-06-25T08:37:55.647Z,81.70
2017-06-25T08:40:22.920Z,81.70
2017-06-25T08:42:50.210Z,81.60
2017-06-25T08:45:17.499Z,81.50
2017-06-25T08:47:44.768Z,81.40
2017-06-25T08:50:12.048Z,81.30
2017-06-25T08:52:39.312Z,81.30
2017-06-25T08:55:06.592Z,81.20
2017-06-25T08:57:33.878Z,81.20
2017-06-25T09:00:01.140Z,81.00
2017-06-25T09:02:28.412Z,80.90
2017-06-25T09:04:55.707Z,80.80
2017-06-25T09:07:22.973Z,80.80
2017-06-25T09:09:50.254Z,80.80
2017-06-25T09:12:17.568Z,80.70
2017-06-25T09:14:44.860Z,80.90
2017-06-25T09:17:12.152Z,80.80
2017-06-25T09:19:39.426Z,80.80
2017-06-25T09:22:06.696Z,80.70
2017-06-25T09:24:33.994Z,80.70
2017-06-25T09:27:01.282Z,80.50
2017-06-25T09:29:28.558Z,80.50
2017-06-25T09:31:55.844Z,80.50
2017-06-25T09:34:23.135Z,80.30
2017-06-25T09:36:50.408Z,80.00
2017-06-25T09:39:17.707Z,79.90
2017-06-25T09:41:45.007Z,79.80
2017-06-25T09:44:12.287Z,79.30
2017-06-25T09:46:39.608Z,79.10
2017-06-25T09:49:06.710Z,78.60
2017-06-25T09:51:34.375Z,79.20
2017-06-25T09:54:01.667Z,79.20
2017-06-25T09:56:28.955Z,79.50
2017-06-25T09:58:56.224Z,79.90
2017-06-25T10:01:23.901Z,80.40
2017-06-25T10:03:51.178Z,80.40
2017-06-25T10:06:18.472Z,80.50
2017-06-25T10:08:45.762Z,81.20
2017-06-25T10:11:13.060Z,81.60
2017-06-25T10:13:40.403Z,81.50
2017-06-25T10:16:07.690Z,81.90
2017-06-25T10:18:34.963Z,82.20
2017-06-25T10:21:02.651Z,82.10
2017-06-25T10:23:29.926Z,82.10
2017-06-25T10:25:57.220Z,81.90
2017-06-25T10:28:24.494Z,82.30
2017-06-25T10:30:52.168Z,82.00
2017-06-25T10:33:19.444Z,82.00
2017-06-25T10:35:46.726Z,82.10
2017-06-25T10:38:13.996Z,81.80
2017-06-25T10:40:41.276Z,81.80
2017-06-25T10:43:08.553Z,82.00
2017-06-25T10:45:35.820Z,82.30
2017-06-25T10:48:03.107Z,82.10
2017-06-25T10:50:30.408Z,82.00
2017-06-25T10:52:57.703Z,81.80
2017-06-25T10:55:24.986Z,82.00
2017-06-25T10:57:52.666Z,82.10
2017-06-25T11:00:19.946Z,82.10
2017-06-25T11:02:47.237Z,81.70
2017-06-25T11:05:14.517Z,81.50
2017-06-25T11:07:41.912Z,80.50
2017-06-25T11:10:09.202Z,79.80
2017-06-25T11:12:36.468Z,79.30
2017-06-25T11:15:03.750Z,79.30
2017-06-25T11:17:31.037Z,78.70
2017-06-25T11:19:58.318Z,78.80
2017-06-25T11:22:25.982Z,78.60
2017-06-25T11:24:53.264Z,78.60
2017-06-25T11:27:20.537Z,77.30
2017-06-25T11:29:47.818Z,77.00
2017-06-25T11:32:15.080Z,77.40
2017-06-25T11:34:42.364Z,76.60
2017-06-25T11:37:09.638Z,76.40
2017-06-25T11:39:36.901Z,76.20
2017-06-25T11:42:04.173Z,76.20
2017-06-25T11:44:31.463Z,76.10
2017-06-25T11:46:58.737Z,76.40
2017-06-25T11:49:26.012Z,76.70
2017-06-25T11:51:53.299Z,76.50
2017-06-25T11:54:20.924Z,77.00
2017-06-25T11:56:48.243Z,77.20
2017-06-25T11:59:15.727Z,77.10
2017-06-25T12:01:43.017Z,76.80
2017-06-25T12:04:10.299Z,77.30
2017-06-25T12:06:37.560Z,77.10
2017-06-25T12:09:05.240Z,77.40
2017-06-25T12:11:32.513Z,77.40
2017-06-25T12:13:59.798Z,77.50
2017-06-25T12:16:27.063Z,77.80
2017-06-25T12:18:54.350Z,77.80
2017-06-25T12:21:21.616Z,77.80
2017-06-25T12:23:48.912Z,77.50
2017-06-25T12:26:16.187Z,77.80
2017-06-25T12:28:43.469Z,77.00
2017-06-25T12:31:10.739Z,77.40
2017-06-25T12:33:38.102Z,77.50
2017-06-25T12:36:05.365Z,76.90
2017-06-25T12:38:32.637Z,76.60
2017-06-25T12:41:01.682Z,76.40
2017-06-25T12:53:08.995Z,76.20
2017-06-25T12:55:36.272Z,75.40
2017-06-25T12:58:03.671Z,75.70
2017-06-25T13:00:30.963Z,75.90
2017-06-25T13:02:58.255Z,76.00
2017-06-25T13:05:25.525Z,76.00
2017-06-25T13:07:52.792Z,76.10
2017-06-25T13:10:20.084Z,75.70
2017-06-25T13:12:48.170Z,75.70
2017-06-25T13:15:15.459Z,75.70
2017-06-25T13:17:42.736Z,75.50
2017-06-25T13:20:10.009Z,75.60
2017-06-25T13:22:37.298Z,75.70
2017-06-25T13:30:22.240Z,75.70
2017-06-25T13:32:49.526Z,76.00
2017-06-25T13:35:16.817Z,76.00
2017-06-25T13:37:44.505Z,75.90
2017-06-25T13:40:11.783Z,75.90
2017-06-25T13:42:39.082Z,76.00
2017-06-25T13:45:06.375Z,76.00
2017-06-25T13:47:33.787Z,75.90
2017-06-25T13:50:01.504Z,75.90
2017-06-25T13:52:28.825Z,75.90
2017-06-25T13:54:56.683Z,75.70
2017-06-25T13:57:24.090Z,75.90
2017-06-25T13:59:51.388Z,75.80
2017-06-25T14:02:18.703Z,75.80
2017-06-25T14:04:46.009Z,75.90
2017-06-25T14:07:13.320Z,75.90
2017-06-25T14:09:40.628Z,76.00
2017-06-25T14:12:07.973Z,75.90
2017-06-25T14:14:35.257Z,76.00
2017-06-25T14:17:02.551Z,75.70
2017-06-25T14:19:29.848Z,75.80
2017-06-25T14:21:57.141Z,76.00
2017-06-25T14:24:24.437Z,75.70
2017-06-25T14:26:51.740Z,75.80
2017-06-25T14:29:19.101Z,75.70
2017-06-25T14:31:46.390Z,75.50
2017-06-25T14:34:13.669Z,75.50
2017-06-25T14:36:40.966Z,75.40
2017-06-25T14:39:08.272Z,75.60
2017-06-25T14:41:35.582Z,75.20
2017-06-25T14:44:02.871Z,75.20
2017-06-25T14:46:30.959Z,75.30
2017-06-25T14:48:58.740Z,75.30
2017-06-25T14:51:26.047Z,75.30
2017-06-25T14:53:53.528Z,75.10
2017-06-25T14:56:20.953Z,75.10
2017-06-25T14:58:48.665Z,74.90
2017-06-25T15:01:16.662Z,74.90
2017-06-25T15:03:44.621Z,75.10
2017-06-25T15:06:11.988Z,75.10
2017-06-25T15:08:39.284Z,75.00
2017-06-25T15:11:06.589Z,74.90
2017-06-25T15:13:33.894Z,75.00
2017-06-25T15:16:01.193Z,75.20
2017-06-25T15:18:28.486Z,75.20
2017-06-25T15:20:55.795Z,75.20
2017-06-25T15:23:27.429Z,75.20
2017-06-25T15:25:54.754Z,75.30
2017-06-25T15:28:22.272Z,75.40
2017-06-25T15:30:50.557Z,75.50
2017-06-25T15:33:17.853Z,75.30
2017-06-25T15:35:45.148Z,75.30
2017-06-25T15:38:12.466Z,75.10
2017-06-25T15:40:39.753Z,75.10
2017-06-25T15:43:09.201Z,75.10
2017-06-25T15:45:36.525Z,75.20
2017-06-25T15:48:03.812Z,75.30
2017-06-25T15:50:31.114Z,75.20
2017-06-25T15:52:58.418Z,75.20
2017-06-25T15:55:25.733Z,75.00
2017-06-25T15:57:53.033Z,75.10
2017-06-25T16:00:20.342Z,75.30
2017-06-25T16:02:48.043Z,75.40
2017-06-25T16:05:15.336Z,75.40
2017-06-25T16:07:42.665Z,75.30
2017-06-25T16:10:10.009Z,75.50
2017-06-25T16:12:37.304Z,75.30
2017-06-25T16:15:05.000Z,75.30
2017-06-25T16:17:32.692Z,75.30
2017-06-25T16:19:59.998Z,75.30
2017-06-25T16:22:27.288Z,75.40
2017-06-25T16:24:54.583Z,75.60
2017-06-25T16:27:21.896Z,75.70
2017-06-25T16:29:49.197Z,75.70
2017-06-25T16:32:16.499Z,75.70
2017-06-25T16:34:43.835Z,75.50
2017-06-25T16:37:11.126Z,75.40
2017-06-25T16:39:38.432Z,74.80
2017-06-25T16:42:05.746Z,74.90
2017-06-25T16:44:33.035Z,74.60
2017-06-25T16:47:00.302Z,74.60
2017-06-25T16:49:27.610Z,74.50
2017-06-25T16:51:55.292Z,74.50
2017-06-25T16:54:22.983Z,74.30
2017-06-25T16:56:50.280Z,74.30
2017-06-25T16:59:17.549Z,74.30
2017-06-25T17:01:44.834Z,74.20
2017-06-25T17:04:12.144Z,74.20
2017-06-25T17:06:39.445Z,74.60
2017-06-25T17:09:06.743Z,74.60
2017-06-25T17:11:34.057Z,74.30
2017-06-25T17:14:01.381Z,74.20
2017-06-25T17:16:28.676Z,74.30
2017-06-25T17:18:55.984Z,74.50
2017-06-25T17:21:23.673Z,74.50
2017-06-25T17:23:50.970Z,74.50
2017-06-25T17:26:18.241Z,74.20
2017-06-25T17:28:45.513Z,74.20
2017-06-25T17:31:12.809Z,74.20
2017-06-25T17:33:40.094Z,74.10
2017-06-25T17:36:07.373Z,74.20
2017-06-25T17:38:35.536Z,74.50
2017-06-25T17:41:02.852Z,73.90
2017-06-25T17:43:30.534Z,73.80
2017-06-25T17:45:58.225Z,73.80
2017-06-25T17:48:25.536Z,73.80
2017-06-25T17:50:52.814Z,73.60
2017-06-25T17:53:20.128Z,73.40
2017-06-25T17:55:48.033Z,73.70
2017-06-25T17:58:15.696Z,73.70
2017-06-25T18:00:43.017Z,73.80
2017-06-25T18:03:10.706Z,73.80
2017-06-25T18:05:38.121Z,73.80
2017-06-25T18:08:05.496Z,73.70
2017-06-25T18:10:33.206Z,74.10
2017-06-25T18:13:00.526Z,74.10
2017-06-25T18:15:27.895Z,74.40
2017-06-25T18:17:55.277Z,74.20
2017-06-25T18:20:22.810Z,74.10
2017-06-25T18:22:50.188Z,74.30
2017-06-25T18:25:17.523Z,74.30
2017-06-25T18:27:44.970Z,74.20
2017-06-25T18:30:12.909Z,74.70
2017-06-25T18:32:40.470Z,74.70
2017-06-25T18:35:07.903Z,74.50
2017-06-25T18:37:35.853Z,74.60
2017-06-25T18:40:03.453Z,74.60
2017-06-25T18:42:33.031Z,74.60
2017-06-25T18:45:01.351Z,74.60
2017-06-25T18:47:29.227Z,74.60
2017-06-25T18:49:56.805Z,74.80
2017-06-25T18:52:24.340Z,74.70
2017-06-25T18:54:51.845Z,74.80
2017-06-25T18:57:19.724Z,75.00
2017-06-25T18:59:47.432Z,74.90
2017-06-25T19:02:15.541Z,74.90
2017-06-25T19:04:43.508Z,75.00
2017-06-25T19:07:11.928Z,75.20
2017-06-25T19:09:39.845Z,75.20
2017-06-25T19:12:07.766Z,75.20
2017-06-25T19:14:35.865Z,75.30
2017-06-25T19:17:04.198Z,75.30
2017-06-25T19:19:32.706Z,75.30
2017-06-25T19:22:00.411Z,75.30
2017-06-25T19:24:28.493Z,75.20
2017-06-25T19:26:57.078Z,75.10
2017-06-25T19:29:26.015Z,75.10
2017-06-25T19:31:55.024Z,75.10
2017-06-25T19:34:23.377Z,75.10
2017-06-25T19:36:51.836Z,75.00
2017-06-25T19:39:20.424Z,74.90
2017-06-25T19:41:48.939Z,75.10
2017-06-25T19:44:17.156Z,75.00
2017-06-25T19:46:45.380Z,75.00
2017-06-25T19:49:13.334Z,75.00
2017-06-25T19:51:43.340Z,74.70
2017-06-25T19:54:11.626Z,75.20
2017-06-25T19:56:39.255Z,75.20
2017-06-25T19:59:07.430Z,74.90
2017-06-25T20:01:35.575Z,75.00
2017-06-25T20:04:03.585Z,75.00
2017-06-25T20:06:31.544Z,75.00
2017-06-25T20:08:58.931Z,75.00
2017-06-25T20:11:26.255Z,75.10
2017-06-25T20:13:53.766Z,75.20
2017-06-25T20:16:21.102Z,75.20
2017-06-25T20:18:48.417Z,75.00
2017-06-25T20:21:16.226Z,75.20
2017-06-25T20:23:49.142Z,75.20
2017-06-25T20:26:16.475Z,74.80
2017-06-25T20:28:44.523Z,74.60
2017-06-25T20:31:12.405Z,74.60
2017-06-25T20:33:40.169Z,74.90
2017-06-25T20:36:07.537Z,74.90
2017-06-25T20:38:35.286Z,75.10
2017-06-25T20:41:02.694Z,75.20
2017-06-25T20:43:30.098Z,75.20
2017-06-25T20:45:57.832Z,75.20
2017-06-25T20:48:25.227Z,75.20
2017-06-25T20:50:53.175Z,75.50
2017-06-25T20:53:20.876Z,75.80
2017-06-25T20:55:48.390Z,75.80
2017-06-25T20:58:15.695Z,75.70
2017-06-25T21:00:43.003Z,75.80
2017-06-25T21:03:10.302Z,75.80
2017-06-25T21:05:37.806Z,75.80
2017-06-25T21:08:08.110Z,76.00
2017-06-25T21:10:35.314Z,76.00
2017-06-25T21:13:02.921Z,76.00
2017-06-25T21:15:30.464Z,76.10
2017-06-25T21:17:57.830Z,76.10
2017-06-25T21:20:32.478Z,76.40
2017-06-25T21:22:59.909Z,76.30
2017-06-25T21:25:30.221Z,76.30
2017-06-25T21:27:57.927Z,76.30
2017-06-25T21:30:25.254Z,76.40
2017-06-25T21:32:52.599Z,76.40
2017-06-25T21:35:25.376Z,76.30
2017-06-25T21:37:58.585Z,76.30
2017-06-25T21:40:28.785Z,76.20
2017-06-25T21:42:56.321Z,76.20
2017-06-25T21:45:23.604Z,76.20
2017-06-25T21:47:50.881Z,76.30
2017-06-25T21:50:19.125Z,76.30
2017-06-25T21:52:47.636Z,76.30
2017-06-25T21:55:15.136Z,76.20
2017-06-25T21:57:42.409Z,75.90
2017-06-25T22:00:10.720Z,75.70
2017-06-25T22:02:38.040Z,75.50
2017-06-25T22:05:05.326Z,75.20
2017-06-25T22:07:32.624Z,75.20
2017-06-25T22:09:59.898Z,74.70
2017-06-25T22:12:30.397Z,75.00
2017-06-25T22:14:57.703Z,74.90
2017-06-25T22:17:30.846Z,74.70
2017-06-25T22:20:01.335Z,74.70
2017-06-25T22:22:28.811Z,74.70
2017-06-25T22:24:55.987Z,74.60
2017-06-25T22:27:23.803Z,74.60
2017-06-25T22:29:51.712Z,74.70
2017-06-25T22:32:19.051Z,74.60
2017-06-25T22:34:51.418Z,74.50
2017-06-25T22:37:18.721Z,74.40
2017-06-25T22:39:46.010Z,74.40
2017-06-25T22:42:13.717Z,74.30
2017-06-25T22:44:41.044Z,74.30
2017-06-25T22:47:11.417Z,74.30
2017-06-25T22:49:38.733Z,74.50
2017-06-25T22:52:06.023Z,74.50
2017-06-25T22:54:33.181Z,74.30
2017-06-25T22:57:07.502Z,74.00
2017-06-25T22:59:34.874Z,74.00
2017-06-25T23:02:02.182Z,74.10
2017-06-25T23:04:29.754Z,74.40
2017-06-25T23:06:57.090Z,74.20
2017-06-25T23:09:24.463Z,74.10
2017-06-25T23:11:51.990Z,74.20
2017-06-25T23:14:20.006Z,74.10
2017-06-25T23:16:47.717Z,74.20
2017-06-25T23:19:18.163Z,74.20
2017-06-25T23:21:48.786Z,74.10
2017-06-25T23:24:23.326Z,74.20
2017-06-25T23:26:50.682Z,74.30
2017-06-25T23:29:21.135Z,74.20
2017-06-25T23:31:55.297Z,74.20
2017-06-25T23:34:23.173Z,74.30
2017-06-25T23:36:50.740Z,74.30
2017-06-25T23:39:18.133Z,74.40
2017-06-25T23:41:45.578Z,74.40
2017-06-25T23:44:13.310Z,74.50
2017-06-25T23:46:40.852Z,74.40
2017-06-25T23:49:08.476Z,74.40
2017-06-25T23:51:35.765Z,74.40
2017-06-25T23:54:02.972Z,74.40
2017-06-25T23:56:35.899Z,74.50
2017-06-25T23:59:03.431Z,74.60
